createdAt,value
2022-10-31T00:01:39.113Z,7.70
2022-10-31T00:05:51.454Z,7.70
2022-10-31T00:09:56.408Z,7.70
2022-10-31T00:14:00.052Z,7.60
2022-10-31T00:18:04.024Z,7.50
2022-10-31T00:22:07.513Z,7.50
2022-10-31T00:26:12.877Z,7.50
2022-10-31T00:30:16.742Z,7.50
2022-10-31T00:34:20.404Z,7.50
2022-10-31T00:38:24.181Z,7.50
2022-10-31T00:42:29.114Z,7.40
2022-10-31T00:46:32.540Z,7.50
2022-10-31T00:50:36.092Z,7.50
2022-10-31T00:54:39.735Z,7.40
2022-10-31T00:58:44.903Z,7.30
2022-10-31T01:02:48.767Z,7.30
2022-10-31T01:06:52.549Z,7.30
2022-10-31T01:11:04.146Z,7.30
2022-10-31T01:15:17.587Z,7.20
2022-10-31T01:19:21.323Z,7.20
2022-10-31T01:23:25.746Z,7.10
2022-10-31T01:27:29.690Z,7.10
2022-10-31T01:31:36.932Z,7.10
2022-10-31T01:35:40.582Z,7.20
2022-10-31T01:39:55.805Z,7.10
2022-10-31T01:44:01.094Z,7.10
2022-10-31T01:48:06.273Z,7.10
2022-10-31T01:52:15.043Z,7.00
2022-10-31T01:56:20.172Z,7.00
2022-10-31T02:00:24.879Z,7.00
2022-10-31T02:04:32.075Z,6.90
2022-10-31T02:08:38.965Z,6.90
2022-10-31T02:12:43.894Z,6.80
2022-10-31T02:16:47.631Z,6.80
2022-10-31T02:21:00.162Z,6.80
2022-10-31T02:25:25.554Z,6.70
2022-10-31T02:30:12.669Z,6.70
2022-10-31T02:34:24.312Z,6.70
2022-10-31T02:38:40.139Z,6.60
2022-10-31T02:42:52.513Z,6.60
2022-10-31T02:47:01.715Z,6.60
2022-10-31T02:51:07.567Z,6.60
2022-10-31T02:55:49.569Z,6.60
2022-10-31T02:59:56.483Z,6.50
2022-10-31T03:04:13.239Z,6.50
2022-10-31T03:08:25.962Z,6.50
2022-10-31T03:12:32.747Z,6.60
2022-10-31T03:16:47.966Z,6.50
2022-10-31T03:20:58.903Z,6.50
2022-10-31T03:25:06.885Z,6.40
2022-10-31T03:29:13.672Z,6.40
2022-10-31T03:33:20.232Z,6.40
2022-10-31T03:37:24.878Z,6.40
2022-10-31T03:41:34.588Z,6.40
2022-10-31T03:45:43.417Z,6.30
2022-10-31T03:49:47.183Z,6.40
2022-10-31T03:53:58.851Z,6.30
2022-10-31T03:58:09.266Z,6.30
2022-10-31T04:02:19.359Z,6.20
2022-10-31T04:06:24.059Z,6.10
2022-10-31T04:10:32.955Z,6.10
2022-10-31T04:14:42.107Z,6.20
2022-10-31T04:18:45.970Z,6.20
2022-10-31T04:22:49.475Z,6.10
2022-10-31T04:26:52.931Z,6.10
2022-10-31T04:30:57.882Z,6.10
2022-10-31T04:35:01.695Z,6.10
2022-10-31T04:39:05.320Z,6.10
2022-10-31T04:43:08.996Z,6.10
2022-10-31T04:47:14.322Z,6.10
2022-10-31T04:51:17.933Z,5.90
2022-10-31T04:55:22.609Z,6.00
2022-10-31T04:59:26.319Z,6.00
2022-10-31T05:03:31.435Z,5.90
2022-10-31T05:07:35.135Z,5.90
2022-10-31T05:11:38.695Z,5.90
2022-10-31T05:15:42.250Z,5.90
2022-10-31T05:19:47.162Z,5.90
2022-10-31T05:23:50.716Z,5.80
2022-10-31T05:27:55.159Z,5.90
2022-10-31T05:31:58.718Z,5.90
2022-10-31T05:36:03.828Z,5.90
2022-10-31T05:40:10.370Z,5.90
2022-10-31T05:44:16.128Z,5.80
2022-10-31T05:48:19.876Z,5.80
2022-10-31T05:52:25.053Z,5.80
2022-10-31T05:56:28.931Z,5.80
2022-10-31T06:00:33.257Z,5.90
2022-10-31T06:04:39.381Z,5.90
2022-10-31T06:08:44.979Z,6.00
2022-10-31T06:12:48.769Z,6.00
2022-10-31T06:16:52.286Z,6.00
2022-10-31T06:20:55.681Z,6.10
2022-10-31T06:25:00.780Z,6.10
2022-10-31T06:29:04.695Z,6.20
2022-10-31T06:33:08.437Z,6.40
2022-10-31T06:37:13.701Z,6.40
2022-10-31T06:41:18.463Z,6.50
2022-10-31T06:45:22.054Z,6.50
2022-10-31T06:49:25.960Z,6.60
2022-10-31T06:53:30.769Z,6.70
2022-10-31T06:57:35.588Z,6.80
2022-10-31T07:01:39.157Z,6.90
2022-10-31T07:05:42.825Z,7.10
2022-10-31T07:09:46.177Z,7.20
2022-10-31T07:13:51.020Z,7.30
2022-10-31T07:17:54.446Z,7.40
2022-10-31T07:21:59.093Z,7.60
2022-10-31T07:26:02.593Z,7.80
2022-10-31T07:30:10.552Z,8.00
2022-10-31T07:34:14.068Z,8.20
2022-10-31T07:38:17.988Z,8.40
2022-10-31T07:42:21.455Z,8.60
2022-10-31T07:46:26.474Z,8.90
2022-10-31T07:50:32.281Z,9.10
2022-10-31T07:54:35.934Z,9.30
2022-10-31T07:58:39.824Z,9.50
2022-10-31T08:02:44.968Z,9.80
2022-10-31T08:06:49.459Z,10.00
2022-10-31T08:10:52.780Z,10.30
2022-10-31T08:14:57.439Z,10.50
2022-10-31T08:19:04.403Z,10.80
2022-10-31T08:23:08.102Z,11.10
2022-10-31T08:27:11.339Z,11.30
2022-10-31T08:31:14.713Z,11.60
2022-10-31T08:35:19.500Z,12.00
2022-10-31T08:39:26.919Z,12.60
2022-10-31T08:43:30.268Z,13.30
2022-10-31T08:47:33.664Z,14.60
2022-10-31T08:51:38.494Z,15.70
2022-10-31T08:55:44.326Z,16.20
2022-10-31T08:59:47.791Z,17.00
2022-10-31T09:03:51.079Z,16.40
2022-10-31T09:07:58.098Z,15.60
2022-10-31T09:12:01.795Z,14.90
2022-10-31T09:16:05.361Z,14.60
2022-10-31T09:20:09.367Z,14.60
2022-10-31T09:24:14.637Z,14.90
2022-10-31T09:28:20.963Z,15.30
2022-10-31T09:32:24.443Z,17.30
2022-10-31T09:36:29.472Z,20.10
2022-10-31T09:40:37.144Z,22.30
2022-10-31T09:44:54.017Z,22.90
2022-10-31T09:49:25.503Z,22.90
2022-10-31T09:53:37.264Z,23.70
2022-10-31T09:57:44.057Z,24.10
2022-10-31T10:01:52.037Z,24.50
2022-10-31T10:05:59.762Z,23.60
2022-10-31T10:10:13.134Z,23.80
2022-10-31T10:14:33.969Z,24.20
2022-10-31T10:18:50.427Z,24.60
2022-10-31T10:23:02.682Z,24.50
2022-10-31T10:27:18.007Z,24.90
2022-10-31T10:31:29.748Z,24.50
2022-10-31T10:35:36.370Z,25.10
2022-10-31T10:39:44.372Z,26.00
2022-10-31T10:48:01.829Z,27.30
2022-10-31T10:52:35.296Z,26.40
2022-10-31T10:56:47.523Z,26.20
2022-10-31T11:00:51.644Z,27.00
2022-10-31T11:04:59.137Z,27.90
2022-10-31T11:09:11.299Z,29.60
2022-10-31T11:13:24.712Z,30.40
2022-10-31T11:17:33.218Z,31.50
2022-10-31T11:21:38.082Z,32.20
2022-10-31T11:25:41.415Z,32.50
2022-10-31T11:29:44.944Z,33.20
2022-10-31T11:33:52.884Z,32.70
2022-10-31T11:38:01.599Z,31.70
2022-10-31T11:42:08.897Z,32.60
2022-10-31T11:46:14.620Z,32.10
2022-10-31T11:50:23.520Z,32.50
2022-10-31T11:54:31.313Z,32.70
2022-10-31T11:58:34.979Z,32.50
2022-10-31T12:02:38.380Z,32.80
2022-10-31T12:06:43.247Z,33.50
2022-10-31T12:11:00.248Z,33.90
2022-10-31T12:15:18.061Z,34.50
2022-10-31T12:19:32.845Z,34.70
2022-10-31T12:23:45.049Z,34.70
2022-10-31T12:28:13.882Z,33.30
2022-10-31T12:32:39.570Z,33.90
2022-10-31T12:36:52.432Z,33.20
2022-10-31T12:41:17.016Z,33.70
2022-10-31T12:45:38.693Z,33.70
2022-10-31T12:49:49.814Z,34.30
2022-10-31T12:54:07.864Z,34.20
2022-10-31T12:58:17.185Z,34.70
2022-10-31T13:02:25.464Z,35.10
2022-10-31T13:06:34.479Z,34.60
2022-10-31T13:10:44.465Z,31.30
2022-10-31T13:14:51.511Z,28.10
2022-10-31T13:19:00.255Z,25.10
2022-10-31T13:23:29.996Z,23.00
2022-10-31T13:27:47.214Z,21.80
2022-10-31T13:31:50.617Z,21.00
2022-10-31T13:36:04.939Z,20.40
2022-10-31T13:40:17.073Z,20.00
2022-10-31T13:44:25.113Z,19.80
2022-10-31T13:48:44.256Z,19.60
2022-10-31T13:52:49.093Z,19.30
2022-10-31T13:56:53.942Z,19.20
2022-10-31T14:01:15.796Z,19.00
2022-10-31T14:05:26.090Z,18.80
2022-10-31T14:09:34.033Z,18.60
2022-10-31T14:13:42.415Z,18.50
2022-10-31T14:17:50.065Z,18.30
2022-10-31T14:21:53.479Z,18.20
2022-10-31T14:26:10.101Z,18.10
2022-10-31T14:30:18.441Z,17.80
2022-10-31T14:34:25.810Z,17.60
2022-10-31T14:38:45.744Z,17.30
2022-10-31T14:43:14.525Z,17.00
2022-10-31T14:47:29.932Z,16.60
2022-10-31T14:51:38.954Z,16.30
2022-10-31T14:55:49.023Z,16.10
2022-10-31T15:00:00.794Z,15.90
2022-10-31T15:04:26.874Z,15.70
2022-10-31T15:08:40.142Z,15.60
2022-10-31T15:12:43.424Z,15.40
2022-10-31T15:16:48.133Z,15.20
2022-10-31T15:20:53.600Z,14.90
2022-10-31T15:24:58.316Z,14.60
2022-10-31T15:29:03.412Z,14.40
2022-10-31T15:34:07.467Z,14.20
2022-10-31T15:38:12.156Z,14.00
2022-10-31T15:42:28.064Z,13.70
2022-10-31T15:46:31.984Z,13.40
2022-10-31T15:50:40.578Z,13.30
2022-10-31T15:54:50.943Z,13.10
2022-10-31T15:58:55.782Z,12.90
2022-10-31T16:03:09.525Z,12.70
2022-10-31T16:07:22.953Z,12.60
2022-10-31T16:11:35.493Z,12.40
2022-10-31T16:15:38.918Z,12.30
2022-10-31T16:19:51.682Z,12.10
2022-10-31T16:24:03.782Z,12.00
2022-10-31T16:28:18.392Z,11.90
2022-10-31T16:32:34.352Z,11.80
2022-10-31T16:36:39.649Z,11.70
2022-10-31T16:40:43.626Z,11.50
2022-10-31T16:44:50.165Z,11.40
2022-10-31T16:48:54.148Z,11.30
2022-10-31T16:53:14.521Z,11.20
2022-10-31T16:57:21.138Z,11.10
2022-10-31T17:01:26.423Z,11.00
2022-10-31T17:05:30.505Z,10.90
2022-10-31T17:09:33.908Z,10.90
2022-10-31T17:13:37.659Z,10.80
2022-10-31T17:17:42.555Z,10.70
2022-10-31T17:22:26.987Z,10.60
2022-10-31T17:27:09.161Z,10.60
2022-10-31T17:37:01.652Z,10.40
2022-10-31T17:51:08.660Z,10.20
2022-10-31T17:55:15.201Z,10.10
2022-10-31T18:00:37.150Z,10.00
2022-10-31T18:04:41.580Z,9.90
2022-10-31T18:09:21.177Z,9.80
2022-10-31T18:13:52.689Z,9.80
2022-10-31T18:18:36.564Z,9.70
2022-10-31T18:23:27.306Z,9.60
2022-10-31T18:28:03.386Z,9.60
2022-10-31T18:32:48.178Z,9.50
2022-10-31T18:37:24.165Z,9.50
2022-10-31T18:41:50.773Z,9.40
2022-10-31T18:46:31.809Z,9.30
2022-10-31T18:51:06.366Z,9.20
2022-10-31T18:57:14.064Z,9.20
2022-10-31T19:00:41.605Z,9.10
2022-10-31T19:05:05.010Z,9.00
2022-10-31T19:09:38.883Z,8.90
2022-10-31T19:18:28.609Z,8.80
2022-10-31T19:22:43.665Z,8.90
2022-10-31T19:27:06.458Z,8.90
2022-10-31T19:31:21.521Z,8.80
2022-10-31T19:36:40.116Z,8.70
2022-10-31T19:41:18.012Z,8.60
2022-10-31T19:45:49.795Z,8.60
2022-10-31T20:00:02.550Z,8.90
2022-10-31T20:04:32.923Z,9.10
2022-10-31T20:17:35.541Z,9.50
2022-10-31T20:22:06.050Z,9.60
2022-10-31T20:26:34.450Z,9.80
2022-10-31T20:31:46.379Z,9.90
2022-10-31T20:37:13.958Z,10.00
2022-10-31T20:45:16.138Z,10.10
2022-10-31T20:49:48.002Z,10.00
2022-10-31T20:54:19.662Z,10.00
2022-10-31T20:59:51.161Z,10.00
2022-10-31T21:03:39.660Z,9.90
2022-10-31T21:12:36.644Z,10.00
2022-10-31T21:17:19.804Z,10.00
2022-10-31T21:27:26.970Z,10.00
2022-10-31T21:31:51.430Z,10.10
2022-10-31T21:35:57.776Z,10.10
2022-10-31T21:40:39.923Z,10.10
2022-10-31T21:45:24.032Z,10.00
2022-10-31T21:50:40.741Z,10.00
2022-10-31T21:55:20.378Z,10.00
2022-10-31T21:59:25.131Z,10.00
2022-10-31T22:04:09.765Z,10.00
2022-10-31T22:08:14.693Z,9.80
2022-10-31T22:12:28.868Z,9.80
2022-10-31T22:16:49.074Z,9.90
2022-10-31T22:21:20.712Z,9.90
2022-10-31T22:25:42.685Z,10.00
2022-10-31T22:29:58.058Z,10.00
2022-10-31T22:34:04.551Z,9.90
2022-10-31T22:38:33.422Z,10.00
2022-10-31T22:42:53.130Z,10.00
2022-10-31T22:47:06.481Z,10.00
2022-10-31T22:51:29.021Z,10.00
2022-10-31T22:56:32.782Z,10.10
2022-10-31T23:00:33.059Z,10.10
2022-10-31T23:14:11.003Z,10.10
2022-10-31T23:19:11.692Z,10.10
2022-10-31T23:23:33.584Z,10.10
2022-10-31T23:27:49.963Z,10.10
2022-10-31T23:32:06.123Z,10.10
2022-10-31T23:36:44.963Z,10.10
2022-10-31T23:40:58.419Z,10.10
2022-10-31T23:45:25.592Z,10.00
2022-10-31T23:49:55.914Z,10.00
2022-10-31T23:54:18.033Z,10.10
2022-10-31T23:58:31.452Z,10.00
